Time;durP1;ratioP1;P1;durP2;ratioP2;P2;SDS_P1;SDS_P2;PMS_P1;PMS_P2;Temp;Humidity;BMP_temperature;BMP_pressure;BME280_temperature;BME280_humidity;BME280_pressure;Samples;Min_cycle;Max_cycle;Signal;HPM_P1;HPM_P2
2020/12/31 00:01:14;;;;;;;5.44;3.69;;;4.10;99.90;;;8.54;89.21;100244.32;1731480;73;24487;-82
2020/12/31 00:03:32;;;;;;;6.47;4.58;;;4.10;99.90;;;8.43;89.94;100245.95;1685522;75;24461;-79
2020/12/31 00:05:48;;;;;;;8.90;5.90;;;4.10;99.90;;;8.57;90.00;100237.86;1719878;73;24433;-80
2020/12/31 00:08:06;;;;;;;11.20;6.81;;;4.10;99.90;;;8.86;89.74;100241.58;1714582;75;24494;-82
2020/12/31 00:10:23;;;;;;;5.11;3.93;;;4.20;99.90;;;8.90;89.45;100236.83;1715480;73;24540;-83
2020/12/31 00:12:39;;;;;;;8.03;5.89;;;4.20;99.90;;;8.57;89.20;100238.27;1720070;73;25020;-80
2020/12/31 00:14:56;;;;;;;7.31;5.41;;;4.20;99.90;;;8.88;89.41;100238.98;1714610;74;24481;-82
2020/12/31 00:17:12;;;;;;;8.03;5.46;;;4.20;99.90;;;8.84;88.66;100232.89;1729494;73;24522;-81
2020/12/31 00:19:29;;;;;;;7.33;4.97;;;4.20;99.90;;;8.82;89.10;100241.09;1681849;75;24448;-82
2020/12/31 00:21:45;;;;;;;5.55;4.71;;;4.30;99.90;;;8.72;88.63;100229.34;1714423;74;24457;-82
2020/12/31 00:24:06;;;;;;;4.61;3.90;;;4.30;99.90;;;8.51;90.00;100235.63;1720226;73;24511;-82
2020/12/31 00:26:24;;;;;;;6.29;4.89;;;4.30;99.90;;;8.51;90.01;100236.52;1714607;73;24771;-80
2020/12/31 00:28:42;;;;;;;4.23;3.39;;;4.30;99.90;;;8.79;90.04;100235.88;1721277;73;24872;-83
2020/12/31 00:31:00;;;;;;;4.75;3.70;;;4.30;99.90;;;8.53;89.22;100237.82;1714516;74;24495;-81
2020/12/31 00:33:17;;;;;;;3.80;3.14;;;4.20;99.90;;;8.40;89.79;100230.36;1715697;73;24535;-80
2020/12/31 00:35:33;;;;;;;4.81;3.88;;;4.20;99.90;;;8.35;90.76;100229.86;1717223;73;24492;-81
2020/12/31 00:37:49;;;;;;;4.48;4.07;;;4.20;99.90;;;8.48;90.44;100229.12;1684637;75;24936;-80
2020/12/31 00:40:07;;;;;;;5.16;3.96;;;4.20;99.90;;;8.60;89.71;100231.39;1715748;74;24530;-83
2020/12/31 00:42:25;;;;;;;5.00;4.50;;;4.10;99.90;;;8.58;88.96;100227.91;1715438;73;24455;-81
2020/12/31 00:44:43;;;;;;;4.11;3.33;;;4.10;99.90;;;8.64;88.68;100221.91;1716551;73;24914;-81
2020/12/31 00:46:59;;;;;;;5.19;3.70;;;4.10;99.90;;;8.52;88.50;100227.02;1719368;73;24567;-82
2020/12/31 00:49:18;;;;;;;4.56;3.87;;;4.10;99.90;;;8.53;89.02;100223.55;1714551;73;24490;-82
2020/12/31 00:51:36;;;;;;;5.70;4.13;;;4.10;99.90;;;8.57;88.83;100221.41;1722495;73;24439;-80
2020/12/31 00:53:53;;;;;;;4.58;3.53;;;4.10;99.90;;;8.46;89.43;100223.92;1728119;73;24497;-81
2020/12/31 00:56:10;;;;;;;5.39;3.77;;;4.10;99.90;;;8.51;89.44;100221.36;1719937;73;24437;-82
2020/12/31 00:58:28;;;;;;;3.40;2.68;;;4.10;99.90;;;8.45;89.56;100221.31;1731792;73;24914;-81
2020/12/31 01:00:45;;;;;;;5.37;3.31;;;4.10;99.90;;;8.31;90.47;100222.91;1710135;74;24464;-80
2020/12/31 01:03:04;;;;;;;5.73;4.40;;;4.10;99.90;;;8.36;90.10;100222.09;1706582;75;24565;-79
2020/12/31 01:05:21;;;;;;;4.61;3.24;;;4.10;99.90;;;8.45;90.17;100217.00;1706873;74;24507;-81
2020/12/31 01:07:38;;;;;;;5.50;3.59;;;4.10;99.90;;;8.23;90.14;100225.44;1705906;74;24440;-80
2020/12/31 01:09:55;;;;;;;4.11;3.11;;;4.00;99.90;;;8.31;90.71;100212.54;1714927;74;24560;-81
2020/12/31 01:12:14;;;;;;;3.90;3.54;;;4.00;99.90;;;8.30;90.60;100214.70;1705988;74;24485;-79
2020/12/31 01:14:30;;;;;;;5.89;4.31;;;4.00;99.90;;;8.28;90.65;100208.62;1706144;74;24446;-81
2020/12/31 01:16:51;;;;;;;4.95;4.27;;;3.90;99.90;;;8.35;89.82;100212.58;1716946;74;25226;-82
2020/12/31 01:19:07;;;;;;;5.30;4.80;;;3.90;99.90;;;8.56;89.61;100208.89;1705407;74;24935;-81
2020/12/31 01:21:26;;;;;;;3.74;3.10;;;3.90;99.90;;;8.52;89.72;100207.11;1714161;74;24435;-81
2020/12/31 01:23:43;;;;;;;5.34;4.38;;;3.90;99.90;;;8.21;89.67;100215.44;1705578;75;24457;-85
2020/12/31 01:26:00;;;;;;;5.97;4.84;;;3.90;99.90;;;8.42;89.15;100217.40;1675190;75;24588;-81
2020/12/31 01:28:16;;;;;;;5.96;5.26;;;3.90;99.90;;;8.46;89.12;100215.25;1715726;74;24475;-81
2020/12/31 01:30:34;;;;;;;7.00;5.36;;;3.90;99.90;;;8.51;89.36;100216.17;1714481;74;24471;-81
2020/12/31 01:32:50;;;;;;;5.94;4.67;;;3.90;99.90;;;8.50;89.12;100218.34;1713345;73;24576;-83
2020/12/31 01:35:06;;;;;;;6.89;5.42;;;3.90;99.90;;;8.38;88.84;100213.02;1708745;74;25009;-82
2020/12/31 01:37:22;;;;;;;6.60;5.96;;;3.90;99.90;;;8.40;89.18;100221.70;1705132;75;24587;-81
2020/12/31 01:39:40;;;;;;;5.97;5.36;;;3.90;99.90;;;8.47;89.42;100218.31;1705193;75;24879;-82
2020/12/31 01:42:04;;;;;;;5.66;5.02;;;3.90;99.90;;;8.45;89.17;100220.02;1713464;74;24958;-81
2020/12/31 01:44:21;;;;;;;7.29;6.51;;;3.90;99.90;;;8.20;89.65;100216.72;1706117;74;24901;-82
2020/12/31 01:46:39;;;;;;;8.57;7.67;;;3.90;99.90;;;8.21;90.36;100218.03;1705527;74;24536;-80
2020/12/31 01:48:56;;;;;;;7.22;6.43;;;3.90;99.90;;;8.34;90.59;100219.05;1709568;74;24869;-83
2020/12/31 01:51:14;;;;;;;7.14;6.42;;;3.90;99.90;;;8.32;90.33;100215.15;1707933;74;24973;-81
2020/12/31 01:53:30;;;;;;;7.10;5.44;;;3.90;99.90;;;8.20;90.52;100217.60;1714458;74;25021;-82
2020/12/31 01:55:46;;;;;;;7.51;6.72;;;3.80;99.90;;;8.10;90.97;100217.47;1716435;74;24423;-82
2020/12/31 01:58:04;;;;;;;7.25;5.89;;;3.80;99.90;;;8.22;90.64;100221.50;1706245;74;24567;-81
2020/12/31 02:00:21;;;;;;;8.21;7.40;;;3.80;99.90;;;8.02;91.17;100217.41;1706094;74;25230;-79
2020/12/31 02:02:37;;;;;;;8.40;7.54;;;3.80;99.90;;;8.44;90.67;100223.48;1682333;75;24510;-79
2020/12/31 02:04:55;;;;;;;8.17;6.99;;;3.80;99.90;;;8.50;90.04;100223.11;1716628;73;24883;-81
2020/12/31 02:07:11;;;;;;;7.94;7.08;;;3.80;99.90;;;8.43;89.57;100220.00;1716369;74;24573;-82
2020/12/31 02:09:30;;;;;;;8.29;7.30;;;3.80;99.90;;;8.44;89.22;100215.70;1716530;75;24583;-81
2020/12/31 02:11:48;;;;;;;8.27;7.36;;;3.80;99.90;;;8.40;89.88;100219.98;1698639;75;24441;-81
2020/12/31 02:14:09;;;;;;;9.19;7.44;;;3.80;99.90;;;8.48;89.29;100213.55;1722913;73;24567;-82
2020/12/31 02:16:29;;;;;;;9.11;8.05;;;3.80;99.90;;;8.48;89.07;100209.25;1722940;73;24456;-81
2020/12/31 02:18:58;;;;;;;8.58;7.70;;;3.90;99.90;;;8.33;89.41;100205.20;1690594;73;24592;-81
2020/12/31 02:21:20;;;;;;;9.30;7.08;;;3.80;99.90;;;8.39;89.96;100205.70;1727904;73;24448;-81
2020/12/31 02:23:39;;;;;;;7.46;6.58;;;3.80;99.90;;;8.07;90.73;100210.96;1716143;74;24446;-81
2020/12/31 02:25:55;;;;;;;9.20;7.02;;;3.80;99.90;;;8.07;91.06;100207.07;1716216;74;24951;-81
2020/12/31 02:28:12;;;;;;;7.56;6.13;;;3.80;99.90;;;7.94;91.48;100206.08;1716898;73;24513;-80
2020/12/31 02:30:29;;;;;;;6.55;5.27;;;3.70;99.90;;;7.92;91.84;100204.34;1716603;75;24479;-82
2020/12/31 02:32:45;;;;;;;8.40;7.48;;;3.70;99.90;;;7.79;92.34;100208.52;1716494;75;25154;-81
2020/12/31 02:35:01;;;;;;;8.40;7.16;;;3.70;99.90;;;8.04;92.12;100200.14;1716334;75;24500;-82
2020/12/31 02:37:17;;;;;;;8.40;7.58;;;3.70;99.90;;;8.17;91.53;100197.25;1685945;75;24457;-80
2020/12/31 02:39:33;;;;;;;5.92;5.23;;;3.70;99.90;;;8.09;91.11;100201.07;1716421;73;24461;-83
2020/12/31 02:41:49;;;;;;;7.13;6.17;;;3.70;99.90;;;7.86;91.39;100200.36;1723199;73;24935;-83
2020/12/31 02:44:09;;;;;;;7.27;6.45;;;3.70;99.90;;;7.97;91.14;100196.16;1716382;74;24890;-83
2020/12/31 02:46:26;;;;;;;7.20;6.23;;;3.60;99.90;;;8.00;91.61;100202.70;1716496;73;25082;-82
2020/12/31 02:48:43;;;;;;;6.45;5.36;;;3.60;99.90;;;7.90;91.93;100195.67;1717479;73;24561;-82
2020/12/31 02:51:01;;;;;;;7.54;5.66;;;3.60;99.90;;;7.95;91.76;100194.84;1716659;74;24385;-83
2020/12/31 02:53:17;;;;;;;5.83;5.07;;;3.60;99.90;;;8.03;91.40;100189.77;1717892;73;24447;-82
2020/12/31 02:55:33;;;;;;;6.02;4.81;;;3.60;99.90;;;7.91;91.81;100190.91;1717837;73;24472;-82
2020/12/31 02:57:50;;;;;;;6.91;6.20;;;3.60;99.90;;;7.87;91.97;100193.92;1716733;75;24438;-82
2020/12/31 03:00:07;;;;;;;5.40;4.65;;;3.60;99.90;;;7.97;91.79;100194.86;1718153;73;24595;-82
2020/12/31 03:02:23;;;;;;;5.95;4.94;;;3.60;99.90;;;7.92;91.65;100198.70;1712091;73;24540;-81
2020/12/31 03:04:43;;;;;;;6.56;5.11;;;3.60;99.90;;;7.98;91.57;100194.91;1705705;74;24440;-82
2020/12/31 03:06:59;;;;;;;6.11;3.96;;;3.60;99.90;;;8.08;91.80;100194.13;1705524;74;24940;-83
2020/12/31 03:09:16;;;;;;;6.38;5.70;;;3.60;99.90;;;7.87;91.51;100192.63;1706053;75;24486;-81
2020/12/31 03:11:44;;;;;;;5.85;4.87;;;3.60;99.90;;;8.00;91.71;100203.99;1707711;74;24525;-82
2020/12/31 03:13:58;;;;;;;6.64;5.39;;;3.60;99.90;;;8.02;91.65;100195.78;1704554;74;24945;-81
2020/12/31 03:16:15;;;;;;;4.86;3.98;;;3.60;99.90;;;7.96;92.04;100192.72;1705200;75;24535;-83
2020/12/31 03:18:31;;;;;;;5.69;4.80;;;3.60;99.90;;;7.91;91.78;100196.09;1705114;75;24430;-81
2020/12/31 03:20:50;;;;;;;5.21;4.71;;;3.60;99.90;;;8.04;91.77;100194.08;1705692;75;24378;-82
2020/12/31 03:23:09;;;;;;;4.92;4.29;;;3.60;99.90;;;8.08;91.87;100195.42;1706451;74;24957;-81
2020/12/31 03:25:26;;;;;;;4.73;3.81;;;3.60;99.90;;;8.01;91.66;100188.45;1708852;74;24540;-81
2020/12/31 03:27:42;;;;;;;5.49;4.97;;;3.60;99.90;;;7.99;91.29;100191.86;1708156;74;24618;-81
2020/12/31 03:30:00;;;;;;;4.59;4.12;;;3.60;99.90;;;8.01;91.73;100188.88;1713911;74;24475;-81
2020/12/31 03:32:16;;;;;;;5.23;4.74;;;3.60;99.90;;;8.05;91.80;100187.62;1705209;74;25907;-81
2020/12/31 03:34:32;;;;;;;4.29;3.90;;;3.60;99.90;;;8.13;92.61;100185.97;1705561;75;24445;-80
2020/12/31 03:36:48;;;;;;;5.30;4.80;;;3.70;99.90;;;7.97;92.02;100182.78;1705795;75;24903;-81
2020/12/31 03:39:04;;;;;;;4.80;3.86;;;3.70;99.90;;;8.06;91.87;100184.61;1718349;74;24526;-81
2020/12/31 03:41:20;;;;;;;3.99;3.22;;;3.70;99.90;;;7.84;92.52;100184.79;1707919;74;24512;-81
2020/12/31 03:43:36;;;;;;;5.33;4.72;;;3.70;99.90;;;7.88;92.02;100174.03;1706937;75;24884;-80
2020/12/31 03:45:54;;;;;;;5.39;4.41;;;3.70;99.90;;;8.12;92.77;100179.05;1707103;74;24499;-81
2020/12/31 03:48:11;;;;;;;4.95;3.49;;;3.70;99.90;;;8.13;91.93;100173.42;1708874;74;24433;-81
2020/12/31 03:50:27;;;;;;;4.32;3.72;;;3.70;99.90;;;7.87;92.18;100177.49;1721272;74;24445;-81
2020/12/31 03:52:44;;;;;;;6.39;4.60;;;3.70;99.90;;;7.91;91.96;100174.06;1706114;74;24902;-81
2020/12/31 03:55:01;;;;;;;3.57;2.53;;;3.70;99.90;;;8.10;92.12;100166.49;1707387;74;24511;-81
2020/12/31 03:57:17;;;;;;;4.53;3.34;;;3.70;99.90;;;7.81;92.18;100168.36;1705201;75;24433;-81
2020/12/31 03:59:33;;;;;;;4.97;4.43;;;3.60;99.90;;;7.71;92.57;100164.35;1713486;74;24851;-80
2020/12/31 04:01:55;;;;;;;6.12;4.43;;;3.70;99.90;;;7.99;92.62;100156.87;1706300;74;24434;-80
2020/12/31 04:04:12;;;;;;;5.90;4.96;;;3.60;99.90;;;7.87;92.64;100159.35;1715622;73;24507;-82
2020/12/31 04:06:29;;;;;;;5.43;4.80;;;3.60;99.90;;;8.10;92.46;100157.42;1720662;73;24904;-83
2020/12/31 04:08:48;;;;;;;5.60;3.23;;;3.60;99.90;;;8.09;91.62;100152.22;1725168;73;24577;-82
2020/12/31 04:11:06;;;;;;;5.31;4.52;;;3.60;99.90;;;7.86;91.16;100153.70;1716635;74;24436;-80
2020/12/31 04:13:23;;;;;;;5.11;4.61;;;3.60;99.90;;;8.00;91.57;100150.84;1716008;73;24902;-81
2020/12/31 04:15:39;;;;;;;4.69;4.01;;;3.60;99.90;;;8.01;91.46;100146.97;1717242;74;24489;-82
2020/12/31 04:17:56;;;;;;;4.40;3.63;;;3.50;99.90;;;7.66;91.71;100144.45;1716230;74;24436;-81
2020/12/31 04:20:12;;;;;;;5.85;3.82;;;3.50;99.90;;;7.76;91.78;100138.52;1721316;73;24482;-81
2020/12/31 04:22:30;;;;;;;5.13;4.40;;;3.50;99.90;;;7.59;92.69;100138.73;1719158;73;24463;-81
2020/12/31 04:24:46;;;;;;;7.24;5.01;;;3.50;99.90;;;7.78;92.59;100131.61;1717158;73;24901;-82
2020/12/31 04:27:03;;;;;;;3.66;2.89;;;3.50;99.90;;;7.88;92.32;100133.45;1716023;73;24919;-81
2020/12/31 04:29:20;;;;;;;6.50;4.63;;;3.50;99.90;;;7.68;92.29;100137.12;1721923;73;24957;-82
2020/12/31 04:31:36;;;;;;;6.25;5.00;;;3.50;99.90;;;7.96;92.37;100133.52;1716923;74;24436;-82
2020/12/31 04:33:57;;;;;;;5.64;5.05;;;3.50;99.90;;;8.11;91.71;100129.33;1715820;73;24588;-82
2020/12/31 04:36:15;;;;;;;4.85;3.86;;;3.50;99.90;;;8.05;91.98;100129.70;1716412;73;25028;-81
2020/12/31 04:38:31;;;;;;;7.68;5.38;;;3.60;99.90;;;8.06;91.06;100125.82;1722248;73;24447;-80
2020/12/31 04:40:47;;;;;;;6.21;5.14;;;3.60;99.90;;;8.22;91.03;100124.25;1722806;73;24496;-80
2020/12/31 04:43:06;;;;;;;6.25;4.45;;;3.60;99.90;;;8.19;91.44;100127.67;1721420;73;24432;-81
2020/12/31 04:45:24;;;;;;;3.65;3.19;;;3.60;99.90;;;7.95;91.39;100122.71;1727183;73;24509;-81
2020/12/31 04:47:46;;;;;;;6.30;5.40;;;3.60;99.90;;;7.99;91.55;100127.05;1727428;73;24869;-80
2020/12/31 04:50:06;;;;;;;6.86;5.48;;;3.70;99.90;;;8.24;91.39;100118.25;1715781;73;24510;-81
2020/12/31 04:52:25;;;;;;;6.16;4.66;;;3.70;99.90;;;8.13;91.78;100125.03;1720775;73;24869;-81
2020/12/31 04:54:43;;;;;;;4.20;3.36;;;3.60;99.90;;;8.13;91.58;100120.27;1721825;73;25060;-82
2020/12/31 04:57:01;;;;;;;6.42;4.77;;;3.70;99.90;;;7.87;92.06;100112.28;1725720;73;24520;-81
2020/12/31 04:59:17;;;;;;;5.51;5.01;;;3.70;99.90;;;7.94;92.74;100115.77;1716856;73;24436;-81
2020/12/31 05:01:34;;;;;;;3.62;3.03;;;3.70;99.90;;;8.15;92.64;100124.63;1716756;75;24501;-82
2020/12/31 05:03:51;;;;;;;5.75;4.59;;;3.70;99.90;;;7.82;92.33;100120.84;1717024;73;24895;-82
2020/12/31 05:06:09;;;;;;;5.51;4.66;;;3.70;99.90;;;7.98;92.64;100115.84;1711704;74;24515;-81
2020/12/31 05:08:46;;;;;;;4.55;4.12;;;3.70;99.90;;;8.20;92.20;100118.18;1705478;74;24449;-82
2020/12/31 05:11:02;;;;;;;4.67;3.68;;;3.70;99.90;;;7.99;92.00;100117.98;1707401;74;24437;-81
2020/12/31 05:13:26;;;;;;;4.30;3.48;;;3.70;99.90;;;7.88;92.51;100117.89;1688339;75;25097;-81
2020/12/31 05:15:44;;;;;;;4.63;3.99;;;3.70;99.90;;;7.97;92.08;100117.97;1711333;74;24482;-80
2020/12/31 05:18:02;;;;;;;5.80;3.92;;;3.70;99.90;;;8.24;91.79;100117.37;1711433;73;24527;-81
2020/12/31 05:20:18;;;;;;;4.13;3.67;;;3.70;99.90;;;8.07;91.37;100116.33;1703321;75;24436;-81
2020/12/31 05:22:34;;;;;;;4.65;4.10;;;3.70;99.90;;;8.04;91.42;100115.89;1712611;74;24439;-81
2020/12/31 05:24:53;;;;;;;4.97;3.40;;;3.70;99.90;;;8.14;91.42;100118.14;1711144;74;24528;-82
2020/12/31 05:27:25;;;;;;;6.29;4.76;;;3.70;99.90;;;7.90;91.07;100116.61;1705629;74;24960;-81
2020/12/31 05:29:43;;;;;;;4.20;3.41;;;3.70;99.90;;;8.16;91.76;100115.10;1705176;74;24501;-81
2020/12/31 05:32:00;;;;;;;4.46;3.50;;;3.70;99.90;;;7.82;91.77;100116.96;1704938;74;24888;-82
2020/12/31 05:34:31;;;;;;;5.39;4.00;;;3.70;99.90;;;7.94;92.13;100114.47;1705532;74;24592;-81
2020/12/31 05:36:47;;;;;;;5.48;4.30;;;3.70;99.90;;;8.16;91.92;100120.29;1705190;74;25120;-82
2020/12/31 05:39:06;;;;;;;4.96;4.06;;;3.70;99.90;;;8.16;91.51;100121.17;1708678;74;24497;-82
2020/12/31 05:41:24;;;;;;;6.42;4.38;;;3.70;99.90;;;8.07;91.48;100115.03;1708373;74;24976;-80
2020/12/31 05:43:44;;;;;;;5.00;3.75;;;3.70;99.90;;;8.10;91.11;100120.23;1707616;74;24846;-82
2020/12/31 05:46:10;;;;;;;2.78;2.50;;;3.70;99.90;;;8.01;91.32;100124.06;1705334;74;24513;-80
2020/12/31 05:48:30;;;;;;;5.10;4.25;;;3.70;99.90;;;7.93;91.33;100119.23;1708332;74;24974;-80
2020/12/31 05:50:47;;;;;;;6.00;3.64;;;3.70;99.90;;;8.22;91.54;100114.73;1708936;74;24949;-81
2020/12/31 05:53:04;;;;;;;4.61;4.15;;;3.70;99.90;;;8.01;91.33;100126.23;1705817;74;24430;-82
2020/12/31 05:55:26;;;;;;;5.00;3.99;;;3.70;99.90;;;7.98;91.70;100124.91;1713998;74;25107;-81
2020/12/31 05:57:52;;;;;;;5.91;4.20;;;3.70;99.90;;;8.00;92.30;100121.04;1706540;74;24528;-80
2020/12/31 06:00:21;;;;;;;5.15;4.32;;;3.70;99.90;;;8.12;91.67;100123.73;1705444;74;24972;-81
2020/12/31 06:02:45;;;;;;;6.05;4.09;;;3.70;99.90;;;8.10;91.01;100123.72;1707856;74;24469;-82
2020/12/31 06:08:20;;;;;;;5.36;4.28;;;3.70;99.90;;;8.24;91.35;100123.44;1789328;71;32459;-82
2020/12/31 06:10:42;;;;;;;4.60;2.83;;;3.70;99.90;;;8.18;91.76;100125.95;1758804;72;24482;-82
2020/12/31 06:13:00;;;;;;;5.94;4.36;;;3.70;99.90;;;7.90;91.26;100126.56;1719425;73;24476;-81
2020/12/31 06:15:21;;;;;;;5.28;3.95;;;3.70;99.90;;;8.14;91.17;100125.91;1737273;73;24480;-81
2020/12/31 06:17:45;;;;;;;4.54;3.60;;;3.70;99.90;;;8.19;90.32;100124.23;1728002;73;24446;-86
2020/12/31 06:20:10;;;;;;;4.69;3.09;;;3.70;99.90;;;8.09;90.41;100118.52;1730733;73;24506;-80
2020/12/31 06:22:34;;;;;;;5.45;3.65;;;3.70;99.90;;;7.97;91.06;100126.16;1734005;72;24454;-81
2020/12/31 06:24:53;;;;;;;4.21;2.71;;;3.70;99.90;;;8.03;91.11;100126.25;1718884;73;24475;-82
2020/12/31 06:27:14;;;;;;;5.00;3.60;;;3.70;99.90;;;7.83;91.24;100125.17;1744938;72;24493;-79
2020/12/31 06:29:31;;;;;;;4.35;3.78;;;3.70;99.90;;;7.96;91.16;100130.50;1753120;72;24429;-81
2020/12/31 06:31:52;;;;;;;5.14;3.21;;;3.70;99.90;;;8.15;91.02;100128.94;1756317;72;24419;-81
2020/12/31 06:34:11;;;;;;;4.14;3.39;;;3.60;99.90;;;8.13;90.24;100134.53;1755777;72;24482;-80
2020/12/31 06:36:37;;;;;;;4.40;3.30;;;3.70;99.90;;;8.42;90.27;100134.39;1758348;72;24878;-84
2020/12/31 06:38:56;;;;;;;4.38;2.65;;;3.70;99.90;;;7.98;89.57;100131.81;1727080;74;24917;-84
2020/12/31 06:41:42;;;;;;;3.48;2.81;;;3.70;99.90;;;8.00;89.90;100129.66;1746337;73;24510;-83
2020/12/31 06:44:11;;;;;;;4.28;2.95;;;3.60;99.90;;;8.09;89.44;100129.77;1750060;72;24440;-82
2020/12/31 06:46:34;;;;;;;3.19;2.61;;;3.60;99.90;;;8.04;89.36;100127.55;1747345;73;24502;-83
2020/12/31 06:48:56;;;;;;;3.84;2.46;;;3.60;99.90;;;8.25;89.37;100133.39;1709363;73;24637;-84
2020/12/31 06:51:13;;;;;;;4.29;2.63;;;3.60;99.90;;;8.21;89.02;100128.56;1757760;72;24420;-84
2020/12/31 06:53:41;;;;;;;3.12;2.39;;;3.60;99.90;;;8.16;88.67;100137.14;1748730;73;24483;-84
2020/12/31 06:55:59;;;;;;;2.92;2.32;;;3.60;99.90;;;8.20;88.78;100136.33;1735780;73;24434;-83
2020/12/31 06:58:27;;;;;;;2.93;2.25;;;3.60;99.90;;;8.30;88.32;100137.74;1747203;72;24415;-85
2020/12/31 07:00:43;;;;;;;2.53;2.25;;;3.60;99.90;;;7.99;88.31;100134.83;1752994;72;24661;-85
2020/12/31 07:03:00;;;;;;;2.46;2.07;;;3.60;99.90;;;8.04;89.00;100147.42;1763238;72;24539;-85
2020/12/31 07:05:24;;;;;;;2.64;1.95;;;3.60;99.90;;;7.86;89.81;100142.92;1758057;72;24877;-85
2020/12/31 07:07:50;;;;;;;2.78;2.15;;;3.60;99.90;;;7.97;90.21;100146.48;1747458;72;24504;-86
2020/12/31 07:10:07;;;;;;;2.15;1.91;;;3.50;99.90;;;8.15;89.36;100149.27;1747783;72;24423;-85
2020/12/31 07:12:39;;;;;;;2.08;1.78;;;3.50;99.90;;;8.00;88.97;100149.10;1752440;72;24410;-83
2020/12/31 07:14:56;;;;;;;2.83;1.89;;;3.60;99.90;;;7.99;88.77;100156.87;1747626;72;24420;-85
2020/12/31 07:17:14;;;;;;;2.00;1.68;;;3.50;99.90;;;7.97;88.84;100150.79;1749262;72;24447;-82
2020/12/31 07:19:47;;;;;;;4.32;1.83;;;3.50;99.90;;;7.94;89.12;100154.23;1753170;72;24403;-85
2020/12/31 07:22:05;;;;;;;3.49;2.16;;;3.50;99.90;;;7.98;89.22;100157.73;1716557;74;24392;-85
2020/12/31 07:24:27;;;;;;;3.63;1.74;;;3.50;99.90;;;8.02;88.60;100153.00;1726909;74;24424;-87
2020/12/31 07:26:47;;;;;;;2.70;1.82;;;3.50;99.90;;;7.91;88.78;100152.91;1728263;73;24898;-86
2020/12/31 07:29:05;;;;;;;2.14;1.64;;;3.50;99.90;;;7.87;88.60;100147.27;1746418;72;24427;-86
2020/12/31 07:31:43;;;;;;;3.04;1.70;;;3.50;99.90;;;7.87;88.61;100151.16;1746202;72;24436;-84
2020/12/31 07:34:21;;;;;;;2.68;2.00;;;3.50;99.90;;;7.92;89.17;100157.68;1749377;72;24389;-85
2020/12/31 07:36:37;;;;;;;4.20;1.82;;;3.50;99.90;;;8.30;88.58;100154.60;1745424;72;24403;-83
2020/12/31 07:38:56;;;;;;;1.76;1.63;;;3.50;99.90;;;8.32;87.51;100158.50;1750649;73;24433;-84
2020/12/31 07:41:19;;;;;;;3.50;1.99;;;3.50;99.90;;;8.12;87.36;100158.73;1744632;72;24448;-82
2020/12/31 07:43:35;;;;;;;3.46;2.09;;;3.50;99.90;;;8.20;87.63;100154.48;1744585;72;24440;-84
2020/12/31 07:45:55;;;;;;;2.60;1.76;;;3.50;99.90;;;8.25;87.44;100155.44;1759012;72;24446;-86
2020/12/31 07:48:12;;;;;;;3.20;2.09;;;3.50;99.90;;;8.33;87.27;100163.70;1755576;72;24423;-84
2020/12/31 07:50:29;;;;;;;3.20;2.00;;;3.60;99.90;;;8.39;87.01;100164.20;1750840;72;24502;-86
2020/12/31 07:52:47;;;;;;;3.69;2.12;;;3.60;99.90;;;8.40;87.86;100160.73;1735292;74;24466;-84
2020/12/31 07:55:05;;;;;;;3.37;2.03;;;3.60;99.90;;;8.51;87.06;100167.76;1718824;74;24470;-84
2020/12/31 07:57:24;;;;;;;3.46;2.16;;;3.70;99.90;;;8.34;86.42;100169.34;1738576;73;24404;-82
2020/12/31 07:59:50;;;;;;;4.58;2.32;;;3.70;99.90;;;8.32;86.92;100167.58;1756677;72;24377;-86
2020/12/31 08:02:09;;;;;;;2.65;2.24;;;3.70;99.90;;;8.34;86.98;100176.25;1752917;72;24482;-84
2020/12/31 08:04:32;;;;;;;2.29;2.09;;;3.70;99.90;;;8.33;87.05;100171.94;1761383;72;24405;-86
2020/12/31 08:06:48;;;;;;;2.85;2.03;;;3.70;99.90;;;8.23;87.36;100181.77;1747574;72;24525;-86
2020/12/31 08:09:07;;;;;;;3.78;2.23;;;3.70;99.90;;;8.30;87.55;100177.95;1754133;72;24480;-85
2020/12/31 08:11:23;;;;;;;2.19;1.90;;;3.70;99.90;;;8.34;87.29;100181.02;1758103;72;24406;-86
2020/12/31 08:13:41;;;;;;;3.38;2.28;;;3.70;99.90;;;8.07;87.10;100185.91;1762696;72;24445;-87
2020/12/31 08:15:58;;;;;;;2.55;2.10;;;3.70;99.90;;;8.25;88.18;100191.30;1758497;72;24465;-86
2020/12/31 08:18:14;;;;;;;3.39;2.34;;;3.60;99.90;;;8.01;87.91;100190.16;1748783;73;24424;-81
2020/12/31 08:20:35;;;;;;;2.40;2.20;;;3.70;99.90;;;8.07;88.46;100189.80;1750256;72;24517;-85
2020/12/31 08:22:59;;;;;;;3.40;2.42;;;3.60;99.90;;;7.87;88.63;100195.63;1752651;72;24475;-86
2020/12/31 08:25:19;;;;;;;3.82;2.66;;;3.60;99.90;;;7.82;88.64;100194.30;1751966;72;24487;-83
2020/12/31 08:27:40;;;;;;;3.17;2.63;;;3.60;99.90;;;7.91;89.26;100191.80;1755769;72;24510;-86
2020/12/31 08:29:58;;;;;;;3.91;2.76;;;3.50;99.90;;;7.99;89.05;100196.63;1753432;72;24419;-86
2020/12/31 08:32:28;;;;;;;3.80;3.19;;;3.50;99.90;;;7.87;88.39;100194.34;1750245;72;24436;-85
2020/12/31 08:34:46;;;;;;;3.77;3.43;;;3.60;99.90;;;7.97;88.78;100187.96;1749015;73;24422;-86
2020/12/31 08:37:05;;;;;;;3.93;3.22;;;3.60;99.90;;;8.01;88.88;100185.86;1750984;72;24446;-86
2020/12/31 08:39:26;;;;;;;4.61;4.19;;;3.60;99.90;;;8.14;88.17;100188.14;1751713;72;24432;-85
2020/12/31 08:41:53;;;;;;;5.24;4.03;;;3.60;99.90;;;8.30;88.50;100184.88;1748076;72;24614;-88
2020/12/31 08:44:15;;;;;;;4.61;4.07;;;3.60;99.90;;;8.08;88.17;100181.61;1752379;72;24655;-90
2020/12/31 08:46:32;;;;;;;4.91;4.43;;;3.60;99.90;;;8.38;88.38;100181.48;1760085;72;24430;-86
2020/12/31 08:48:55;;;;;;;5.38;4.46;;;3.70;99.90;;;8.54;88.34;100175.56;1760228;72;24450;-85
2020/12/31 08:51:16;;;;;;;4.53;4.09;;;3.80;99.90;;;8.41;87.40;100166.39;1754207;72;24482;-86
2020/12/31 08:53:37;;;;;;;4.83;4.19;;;3.80;99.90;;;8.14;88.16;100172.14;1752922;72;24459;-87
2020/12/31 08:55:55;;;;;;;5.14;4.60;;;3.80;99.90;;;8.22;88.73;100174.38;1758732;72;24427;-82
2020/12/31 08:58:16;;;;;;;5.23;4.69;;;3.80;99.90;;;8.41;88.02;100170.28;1761568;72;24434;-87
2020/12/31 09:00:40;;;;;;;5.18;4.44;;;3.80;99.90;;;8.55;88.15;100163.47;1737757;73;24418;-86
2020/12/31 09:02:57;;;;;;;4.95;4.40;;;3.80;99.90;;;8.52;87.26;100165.59;1756768;72;24399;-87
2020/12/31 09:05:18;;;;;;;4.81;4.28;;;3.90;99.90;;;8.44;87.72;100167.25;1739233;72;24965;-86
2020/12/31 09:07:34;;;;;;;5.05;4.49;;;3.90;99.90;;;8.33;87.45;100174.52;1722501;73;24472;-87
2020/12/31 09:09:50;;;;;;;5.60;4.64;;;3.90;99.90;;;8.08;88.71;100182.91;1723008;73;24496;-87
2020/12/31 09:12:09;;;;;;;5.13;4.43;;;3.90;99.90;;;8.25;89.23;100177.48;1732861;74;24516;-85
2020/12/31 09:14:57;;;;;;;5.39;4.56;;;3.90;99.90;;;8.52;89.04;100185.50;1756103;72;24441;-86
2020/12/31 09:17:27;;;;;;;5.49;4.68;;;3.90;99.90;;;8.57;88.24;100179.89;1735445;73;24400;-86
2020/12/31 09:19:58;;;;;;;4.90;4.36;;;4.00;99.90;;;8.71;88.54;100184.78;1702694;74;24851;-86
2020/12/31 09:22:16;;;;;;;4.13;3.40;;;4.00;99.90;;;8.91;87.98;100187.95;1754370;72;24431;-86
2020/12/31 09:24:39;;;;;;;4.76;4.28;;;4.10;99.90;;;8.49;87.53;100192.81;1751374;72;24514;-87
2020/12/31 09:26:57;;;;;;;4.46;4.04;;;4.10;99.90;;;8.57;89.13;100192.86;1751841;72;24431;-86
2020/12/31 09:29:13;;;;;;;4.35;3.95;;;4.10;99.90;;;8.62;88.51;100196.37;1748902;72;24880;-82
2020/12/31 09:31:38;;;;;;;4.80;3.74;;;4.10;99.90;;;8.66;88.04;100199.00;1752404;72;24431;-86
2020/12/31 09:33:54;;;;;;;4.95;4.42;;;4.10;99.90;;;8.82;88.30;100200.01;1722942;73;24886;-85
2020/12/31 09:36:11;;;;;;;6.21;5.61;;;4.10;99.90;;;9.00;87.72;100197.52;1712571;73;24471;-86
2020/12/31 09:38:27;;;;;;;7.69;5.71;;;4.20;99.90;;;9.07;86.94;100202.75;1692816;74;24515;-87
2020/12/31 09:40:43;;;;;;;7.19;5.72;;;4.20;99.90;;;8.89;86.76;100203.95;1703855;74;24987;-89
2020/12/31 09:43:00;;;;;;;6.03;5.39;;;4.20;99.90;;;8.86;87.71;100202.63;1732756;73;24448;-83
2020/12/31 09:45:20;;;;;;;3.99;3.60;;;4.20;99.90;;;8.94;86.52;100207.87;1726082;73;24432;-88
2020/12/31 09:47:37;;;;;;;4.46;3.61;;;4.20;99.90;;;8.82;87.11;100212.53;1696307;75;24401;-87
2020/12/31 09:49:54;;;;;;;4.20;3.85;;;4.30;99.90;;;8.86;87.40;100199.16;1705964;74;24925;-85
2020/12/31 09:52:12;;;;;;;5.11;3.73;;;4.30;99.90;;;8.92;86.89;100203.09;1716017;74;25037;-86
2020/12/31 09:54:29;;;;;;;3.48;3.14;;;4.30;99.90;;;8.75;87.33;100197.80;1718967;74;25005;-85